Platzwetter / Webcam

  • Aktuelles Bild
  • Verlauf
  • Verlauf
  • Verlauf
  • Verlauf
  • Verlauf
  • Verlauf
  • Verlauf
  • Verlauf
  • Verlauf
  • Verlauf
  • Verlauf
  • Verlauf
  • Verlauf
  • Verlauf
  • Verlauf
  • Verlauf
  • Verlauf

Flugwetter Linz

[Quelle: ADDS]
METAR
LOWL 241950Z AUTO 05008KT 9999 FEW024 BKN028 08/04 Q1029 NOSIG =
TAF
LOWL 241715Z 2418/2518 09010KT 9999 FEW018 BKN023 TX14/2514Z TN03/2505Z TEMPO 2419/2507 07005KT 7000 SCT020 BECMG 2507/2510 FEW025 =

Flugwetter Salzburg

[Quelle: ADDS]
METAR
LOWS 241950Z 07003KT 020V130 9999 FEW013 BKN016 08/05 Q1027 NOSIG =
TAF
LOWS 241715Z 2418/2518 01007KT 9999 SCT014 BKN020 TX14/2513Z TN03/2505Z TEMPO 2418/2500 BKN010 TEMPO 2500/2509 VRB02KT 3000 BR BKN007 PROB30 TEMPO 2503/2507 0800 BCFG BKN002 BECMG 2509/2512 SCT020 SCT300 =

Fliegen lernen

Die Fliegerschule der WMW...

Termine & Events

Alle Termine anzeigen...

Aktuelles & News

+++ Aktuelle Spritpreise (07.03.2017): | Jet A-1 € 1,340 | Super Plus 98 ETBE € 1,370 | Avgas 100LL € 1,992 | +++